Time;durP1;ratioP1;P1;durP2;ratioP2;P2;SDS_P1;SDS_P2;PMS_P1;PMS_P2;Temp;Humidity;BMP_temperature;BMP_pressure;BME280_temperature;BME280_humidity;BME280_pressure;Samples;Min_cycle;Max_cycle;Signal;HPM_P1;HPM_P2
2022/04/14 00:01:14;;;;;;;12.35;8.70;;;10.70;99.90;;;;;;5114922;28;20042;-79
2022/04/14 00:03:40;;;;;;;15.65;9.25;;;10.70;99.90;;;;;;5114207;28;20509;-79
2022/04/14 00:06:06;;;;;;;15.32;8.57;;;10.60;99.90;;;;;;5114124;28;20046;-79
2022/04/14 00:08:32;;;;;;;12.55;8.50;;;10.70;99.90;;;;;;5131280;27;20040;-79
2022/04/14 00:10:58;;;;;;;11.32;8.15;;;10.60;99.90;;;;;;5114697;28;20126;-80
2022/04/14 00:13:24;;;;;;;19.30;9.18;;;10.60;99.90;;;;;;5114340;28;20047;-79
2022/04/14 00:15:50;;;;;;;15.18;9.38;;;10.60;99.90;;;;;;5114788;28;20035;-79
2022/04/14 00:18:16;;;;;;;17.92;9.07;;;10.60;99.90;;;;;;5096700;28;20047;-79
2022/04/14 00:20:42;;;;;;;13.98;8.55;;;10.50;99.90;;;;;;5113677;28;20043;-79
2022/04/14 00:23:08;;;;;;;15.10;9.73;;;10.60;99.90;;;;;;5113575;28;20510;-79
2022/04/14 00:25:34;;;;;;;19.15;9.25;;;10.60;99.90;;;;;;5114562;28;20051;-79
2022/04/14 00:28:00;;;;;;;13.23;8.48;;;10.60;99.90;;;;;;5113775;28;20040;-80
2022/04/14 00:30:26;;;;;;;13.95;9.50;;;10.60;99.90;;;;;;5113530;28;20089;-80
2022/04/14 00:32:52;;;;;;;13.40;8.10;;;10.50;99.90;;;;;;5113135;28;20075;-79
2022/04/14 00:35:18;;;;;;;15.15;8.50;;;10.50;99.90;;;;;;5113101;28;20489;-79
2022/04/14 00:37:44;;;;;;;14.77;8.25;;;10.50;99.90;;;;;;5114690;28;20043;-79
2022/04/14 00:40:10;;;;;;;16.50;9.32;;;10.40;99.90;;;;;;5112553;28;20084;-80
2022/04/14 00:42:36;;;;;;;19.88;9.55;;;10.40;99.90;;;;;;5113856;28;20505;-79
2022/04/14 00:45:02;;;;;;;17.98;9.57;;;10.30;99.90;;;;;;5111765;28;20047;-79
2022/04/14 00:47:31;;;;;;;15.88;8.95;;;10.30;99.90;;;;;;5129448;27;20043;-79
2022/04/14 00:49:58;;;;;;;12.95;8.68;;;10.20;99.90;;;;;;5113516;28;20625;-79
2022/04/14 00:52:25;;;;;;;14.93;9.60;;;10.10;99.90;;;;;;5112860;28;20047;-79
2022/04/14 00:54:51;;;;;;;13.13;8.75;;;10.10;99.90;;;;;;5113321;28;20047;-80
2022/04/14 00:57:18;;;;;;;18.70;9.93;;;10.00;99.90;;;;;;5114370;28;20044;-79
2022/04/14 00:59:44;;;;;;;19.90;10.25;;;10.00;99.90;;;;;;5113955;28;20040;-80
2022/04/14 01:02:10;;;;;;;18.15;9.50;;;9.90;99.90;;;;;;5113446;28;20043;-80
2022/04/14 01:04:37;;;;;;;17.25;10.10;;;9.90;99.90;;;;;;5112581;28;20039;-79
2022/04/14 01:07:07;;;;;;;19.67;10.27;;;9.90;99.90;;;;;;5114284;28;20039;-79
2022/04/14 01:09:34;;;;;;;20.27;10.70;;;9.90;99.90;;;;;;5111984;28;20039;-79
2022/04/14 01:12:00;;;;;;;15.90;10.43;;;9.90;99.90;;;;;;5113795;28;20047;-79
2022/04/14 01:14:37;;;;;;;20.88;10.65;;;9.90;99.90;;;;;;5112832;28;20105;-79
2022/04/14 01:17:05;;;;;;;15.95;10.02;;;9.80;99.90;;;;;;5111791;28;20078;-79
2022/04/14 01:19:31;;;;;;;22.95;11.50;;;9.80;99.90;;;;;;5112551;28;20040;-79
2022/04/14 01:22:24;;;;;;;17.23;10.63;;;9.80;99.90;;;;;;5112887;28;20044;-79
2022/04/14 01:24:57;;;;;;;16.02;10.73;;;9.80;99.90;;;;;;5086253;28;20131;-79
2022/04/14 01:27:25;;;;;;;21.60;13.10;;;9.70;99.90;;;;;;5093922;28;20048;-79
2022/04/14 01:29:54;;;;;;;19.02;10.85;;;9.70;99.90;;;;;;5111541;28;20104;-79
2022/04/14 01:32:21;;;;;;;27.58;12.43;;;9.70;99.90;;;;;;5112149;28;20043;-80
2022/04/14 01:34:47;;;;;;;21.98;12.02;;;9.60;99.90;;;;;;5112834;28;20118;-80
2022/04/14 01:37:13;;;;;;;17.90;10.70;;;9.60;99.90;;;;;;5113039;28;20050;-80
2022/04/14 01:39:39;;;;;;;18.23;10.70;;;9.60;99.90;;;;;;5113574;28;20075;-80
2022/04/14 01:42:05;;;;;;;12.93;9.75;;;9.60;99.90;;;;;;5113575;28;20122;-80
2022/04/14 01:44:32;;;;;;;17.63;11.73;;;9.60;99.90;;;;;;5112799;28;20036;-80
2022/04/14 01:46:58;;;;;;;14.82;10.48;;;9.50;99.90;;;;;;5113673;28;20581;-80
2022/04/14 01:49:23;;;;;;;14.63;11.00;;;9.50;99.90;;;;;;5111860;28;20127;-80
2022/04/14 01:51:49;;;;;;;27.55;12.50;;;9.50;99.90;;;;;;5112759;28;20048;-80
2022/04/14 01:54:15;;;;;;;17.05;10.88;;;9.50;99.90;;;;;;5113321;28;20071;-79
2022/04/14 01:56:45;;;;;;;22.00;12.60;;;9.50;99.90;;;;;;5115895;28;20036;-79
2022/04/14 01:59:11;;;;;;;18.88;12.05;;;9.40;99.90;;;;;;5117089;28;20039;-80
2022/04/14 02:01:37;;;;;;;20.35;13.02;;;9.40;99.90;;;;;;5095569;28;20051;-80
2022/04/14 02:04:05;;;;;;;18.65;13.30;;;9.50;99.90;;;;;;5114067;27;20044;-80
2022/04/14 02:06:31;;;;;;;19.83;11.88;;;9.50;99.90;;;;;;5103766;28;20165;-80
2022/04/14 02:08:57;;;;;;;19.60;12.45;;;9.40;99.90;;;;;;5115814;28;20051;-80
2022/04/14 02:11:23;;;;;;;23.50;13.30;;;9.40;99.90;;;;;;5115956;28;20035;-80
2022/04/14 02:13:49;;;;;;;19.33;13.45;;;9.40;99.90;;;;;;5116744;28;20048;-79
2022/04/14 02:16:17;;;;;;;19.73;13.35;;;9.30;99.90;;;;;;5115678;28;20134;-79
2022/04/14 02:18:43;;;;;;;25.35;13.80;;;9.30;99.90;;;;;;5117482;28;20399;-79
2022/04/14 02:21:09;;;;;;;24.42;15.40;;;9.20;99.90;;;;;;5116149;28;20039;-79
2022/04/14 02:23:35;;;;;;;22.30;15.52;;;9.20;99.90;;;;;;5116301;28;20054;-79
2022/04/14 02:26:01;;;;;;;25.35;13.75;;;9.10;99.90;;;;;;5116089;28;20051;-79
2022/04/14 02:28:26;;;;;;;22.20;14.02;;;9.10;99.90;;;;;;5132873;27;20097;-79
2022/04/14 02:30:52;;;;;;;22.65;15.30;;;9.10;99.90;;;;;;5133169;27;20050;-80
2022/04/14 02:33:18;;;;;;;22.27;14.63;;;9.10;99.90;;;;;;5115908;28;20062;-79
2022/04/14 02:35:44;;;;;;;25.05;15.48;;;9.00;99.90;;;;;;5116494;28;20076;-79
2022/04/14 02:38:10;;;;;;;24.58;14.38;;;9.00;99.90;;;;;;5116925;28;20043;-79
2022/04/14 02:40:35;;;;;;;19.38;15.23;;;8.90;99.90;;;;;;5118293;27;20052;-80
2022/04/14 02:43:01;;;;;;;21.80;15.30;;;8.90;99.90;;;;;;5095370;28;20566;-80
2022/04/14 02:45:27;;;;;;;27.50;17.20;;;8.90;99.90;;;;;;5107077;28;20071;-80
2022/04/14 02:47:54;;;;;;;28.17;16.30;;;8.90;99.90;;;;;;5114533;28;20043;-80
2022/04/14 02:50:21;;;;;;;27.63;16.48;;;8.80;99.90;;;;;;5114742;28;20056;-80
2022/04/14 02:52:50;;;;;;;27.65;17.42;;;8.80;99.90;;;;;;5115345;28;20127;-80
2022/04/14 02:55:17;;;;;;;27.77;18.90;;;8.80;99.90;;;;;;5114490;28;20104;-80
2022/04/14 02:57:43;;;;;;;29.08;17.10;;;8.80;99.90;;;;;;5115445;28;20047;-81
2022/04/14 03:00:10;;;;;;;30.00;15.95;;;8.80;99.90;;;;;;5125994;27;20047;-80
2022/04/14 03:02:37;;;;;;;23.13;13.50;;;8.80;99.90;;;;;;5115284;28;20043;-80
2022/04/14 03:05:04;;;;;;;24.50;12.93;;;8.70;99.90;;;;;;5116242;28;20043;-80
2022/04/14 03:07:30;;;;;;;26.58;17.00;;;8.60;99.90;;;;;;5114059;28;20052;-80
2022/04/14 03:09:56;;;;;;;23.35;15.98;;;8.60;99.90;;;;;;5113837;28;20058;-80
2022/04/14 03:12:21;;;;;;;24.60;15.57;;;8.50;99.90;;;;;;5115862;28;20043;-80
2022/04/14 03:14:48;;;;;;;32.72;17.92;;;8.50;99.90;;;;;;5115991;28;20130;-80
2022/04/14 03:17:14;;;;;;;31.58;18.30;;;8.50;99.90;;;;;;5115051;28;20556;-80
2022/04/14 03:19:39;;;;;;;28.92;17.60;;;8.50;99.90;;;;;;5116245;28;20115;-80
2022/04/14 03:22:05;;;;;;;37.42;22.27;;;8.50;99.90;;;;;;5118239;27;20507;-80
2022/04/14 03:24:31;;;;;;;39.08;22.60;;;8.50;99.90;;;;;;5095300;28;20391;-80
2022/04/14 03:26:57;;;;;;;39.30;22.58;;;8.50;99.90;;;;;;5122273;27;20043;-80
2022/04/14 03:29:23;;;;;;;39.88;22.70;;;8.50;99.90;;;;;;5115218;28;20042;-80
2022/04/14 03:31:48;;;;;;;47.05;24.33;;;8.50;99.90;;;;;;5115471;27;20058;-80
2022/04/14 03:34:14;;;;;;;41.22;24.27;;;8.50;99.90;;;;;;5114864;28;20501;-80
2022/04/14 03:36:40;;;;;;;44.75;24.42;;;8.50;99.90;;;;;;5114635;28;20035;-80
2022/04/14 03:39:05;;;;;;;42.28;24.83;;;8.50;99.90;;;;;;5131943;27;20071;-80
2022/04/14 03:41:31;;;;;;;37.55;22.08;;;8.50;99.90;;;;;;5105518;28;20036;-80
2022/04/14 03:43:57;;;;;;;28.38;19.20;;;8.50;99.90;;;;;;5093109;28;20051;-80
2022/04/14 03:46:23;;;;;;;31.42;20.95;;;8.40;99.90;;;;;;5103277;28;20039;-80
2022/04/14 03:48:49;;;;;;;31.17;20.17;;;8.40;99.90;;;;;;5131337;27;20031;-80
2022/04/14 03:51:16;;;;;;;24.50;19.25;;;8.40;99.90;;;;;;5114287;28;20127;-80
2022/04/14 03:53:43;;;;;;;44.10;24.42;;;8.30;99.90;;;;;;5114396;28;20035;-80
2022/04/14 03:56:09;;;;;;;35.25;21.52;;;8.30;99.90;;;;;;5114015;28;20070;-80
2022/04/14 03:58:35;;;;;;;28.38;21.00;;;8.20;99.90;;;;;;5113491;28;20390;-80
2022/04/14 04:01:00;;;;;;;46.50;20.77;;;8.20;99.90;;;;;;5130762;27;20130;-80
2022/04/14 04:03:26;;;;;;;49.10;27.50;;;8.20;99.90;;;;;;5114258;28;20054;-80
2022/04/14 04:05:52;;;;;;;50.15;26.65;;;8.10;99.90;;;;;;5114087;28;20096;-80
2022/04/14 04:08:19;;;;;;;54.70;29.35;;;8.10;99.90;;;;;;5114073;28;20052;-80
2022/04/14 04:10:45;;;;;;;35.78;22.98;;;8.10;99.90;;;;;;5114886;28;20445;-80
2022/04/14 04:13:11;;;;;;;47.40;23.83;;;8.10;99.90;;;;;;5112961;28;20407;-80
2022/04/14 04:15:37;;;;;;;36.10;22.92;;;8.10;99.90;;;;;;5113196;28;20052;-80
2022/04/14 04:18:04;;;;;;;46.05;25.92;;;8.10;99.90;;;;;;5096807;28;20167;-80
2022/04/14 04:20:31;;;;;;;40.42;23.55;;;8.00;99.90;;;;;;5113461;28;20046;-80
2022/04/14 04:22:57;;;;;;;34.55;21.67;;;8.00;99.90;;;;;;5114914;28;20039;-80
2022/04/14 04:25:23;;;;;;;27.38;18.80;;;7.90;99.90;;;;;;5113205;28;20031;-80
2022/04/14 04:27:49;;;;;;;32.28;19.55;;;7.90;99.90;;;;;;5112800;28;20107;-80
2022/04/14 04:30:14;;;;;;;36.47;23.33;;;7.90;99.90;;;;;;5111913;27;20036;-80
2022/04/14 04:32:41;;;;;;;49.90;26.90;;;7.80;99.90;;;;;;5094063;28;20471;-80
2022/04/14 04:35:07;;;;;;;49.45;26.55;;;7.80;99.90;;;;;;5113371;28;20467;-80
2022/04/14 04:37:33;;;;;;;59.70;29.73;;;7.80;99.90;;;;;;5114788;28;20047;-80
2022/04/14 04:39:59;;;;;;;77.05;37.17;;;7.80;99.90;;;;;;5113378;28;20036;-80
2022/04/14 04:42:25;;;;;;;54.45;30.02;;;7.80;99.90;;;;;;5112805;28;20044;-80
2022/04/14 04:44:51;;;;;;;56.90;30.58;;;7.80;99.90;;;;;;5113454;28;20039;-80
2022/04/14 04:47:20;;;;;;;55.65;27.40;;;7.80;99.90;;;;;;5112083;28;20040;-80
2022/04/14 04:49:46;;;;;;;40.47;23.73;;;7.80;99.90;;;;;;5112960;28;20056;-80
2022/04/14 04:52:12;;;;;;;47.65;25.67;;;7.80;99.90;;;;;;5112638;28;20135;-80
2022/04/14 04:54:38;;;;;;;38.15;23.13;;;7.70;99.90;;;;;;5113508;28;20469;-79
2022/04/14 04:57:04;;;;;;;65.72;31.83;;;7.70;99.90;;;;;;5113920;28;20511;-79
2022/04/14 04:59:30;;;;;;;54.17;28.02;;;7.70;99.90;;;;;;5114364;28;20039;-80
2022/04/14 05:01:56;;;;;;;44.60;25.30;;;7.60;99.90;;;;;;5112361;28;20426;-80
2022/04/14 05:04:21;;;;;;;40.03;24.33;;;7.60;99.90;;;;;;5112100;28;20537;-81
2022/04/14 05:06:47;;;;;;;51.28;30.27;;;7.60;99.90;;;;;;5113857;28;20086;-81
2022/04/14 05:09:13;;;;;;;61.97;30.45;;;7.60;99.90;;;;;;5111865;28;20040;-82
2022/04/14 05:11:39;;;;;;;64.00;32.15;;;7.60;99.90;;;;;;5113856;28;20043;-82
2022/04/14 05:14:04;;;;;;;88.22;38.35;;;7.60;99.90;;;;;;5130224;27;20044;-82
2022/04/14 05:16:30;;;;;;;70.45;33.53;;;7.60;99.90;;;;;;5113160;28;20498;-80
2022/04/14 05:18:56;;;;;;;85.50;40.00;;;7.70;99.90;;;;;;5129301;27;20043;-80
2022/04/14 05:21:22;;;;;;;70.20;35.67;;;7.70;99.90;;;;;;5130130;27;20119;-80
2022/04/14 05:23:47;;;;;;;90.30;41.47;;;7.80;99.90;;;;;;5112900;28;20531;-81
2022/04/14 05:26:13;;;;;;;76.82;36.15;;;7.90;99.90;;;;;;5113836;28;20058;-80
2022/04/14 05:28:39;;;;;;;48.40;30.13;;;7.90;99.90;;;;;;5112440;28;20094;-80
2022/04/14 05:31:05;;;;;;;57.80;31.15;;;7.90;99.90;;;;;;5114432;28;20035;-80
2022/04/14 05:33:31;;;;;;;55.15;34.67;;;7.90;99.90;;;;;;5116874;28;20083;-81
2022/04/14 05:35:56;;;;;;;50.25;30.10;;;8.00;99.90;;;;;;5115796;28;20039;-80
2022/04/14 05:38:22;;;;;;;80.80;37.50;;;8.00;99.90;;;;;;5134133;27;20043;-81
2022/04/14 05:40:48;;;;;;;57.75;33.78;;;8.10;99.90;;;;;;5117139;28;20134;-80
2022/04/14 05:43:23;;;;;;;62.72;34.67;;;8.10;99.90;;;;;;5115879;28;20122;-80
2022/04/14 05:45:49;;;;;;;68.07;36.05;;;8.20;99.90;;;;;;5117750;28;20063;-80
2022/04/14 05:48:16;;;;;;;52.78;32.22;;;8.30;99.90;;;;;;5117317;28;20486;-80
2022/04/14 05:50:43;;;;;;;71.25;36.85;;;8.40;99.90;;;;;;5116267;28;20164;-80
2022/04/14 05:53:10;;;;;;;61.47;35.50;;;8.40;99.90;;;;;;5116345;28;20180;-81
2022/04/14 05:55:36;;;;;;;62.45;35.47;;;8.50;99.90;;;;;;5116470;28;20055;-81
2022/04/14 05:58:05;;;;;;;62.05;37.60;;;8.60;99.90;;;;;;5116721;28;20047;-80
2022/04/14 06:00:31;;;;;;;59.60;35.05;;;8.70;99.90;;;;;;5116472;28;20095;-80
2022/04/14 06:02:59;;;;;;;66.45;36.92;;;8.80;99.90;;;;;;5115289;28;20086;-80
2022/04/14 06:05:29;;;;;;;63.80;36.67;;;8.90;99.90;;;;;;5115721;28;20071;-80
2022/04/14 06:07:55;;;;;;;55.20;35.05;;;9.00;99.90;;;;;;5116149;28;20131;-80
2022/04/14 06:10:22;;;;;;;72.68;38.50;;;9.10;99.90;;;;;;5098988;28;20044;-80
2022/04/14 06:12:48;;;;;;;60.22;34.97;;;9.20;99.90;;;;;;5114912;28;20046;-80
2022/04/14 06:15:14;;;;;;;60.20;36.83;;;9.30;99.90;;;;;;5116815;28;20076;-80
2022/04/14 06:17:40;;;;;;;60.65;35.45;;;9.40;99.90;;;;;;5115164;28;20043;-80
2022/04/14 06:20:06;;;;;;;64.05;37.33;;;9.50;99.90;;;;;;5116386;28;20063;-81
2022/04/14 06:22:37;;;;;;;57.45;36.05;;;9.60;99.90;;;;;;5116725;28;20118;-80
2022/04/14 06:25:04;;;;;;;67.47;38.17;;;9.60;99.90;;;;;;5115960;28;20356;-80
2022/04/14 06:27:29;;;;;;;59.22;36.83;;;9.60;99.90;;;;;;5116670;28;20563;-80
2022/04/14 06:29:55;;;;;;;64.00;35.63;;;9.60;99.90;;;;;;5115607;28;20126;-80
2022/04/14 06:32:24;;;;;;;63.15;36.58;;;9.60;99.90;;;;;;5114373;28;20095;-80
2022/04/14 06:34:50;;;;;;;51.97;35.58;;;9.70;99.90;;;;;;5115591;28;20042;-80
2022/04/14 06:37:16;;;;;;;63.08;37.63;;;9.70;99.90;;;;;;5115286;28;20043;-80
2022/04/14 06:39:41;;;;;;;65.68;36.00;;;9.80;99.90;;;;;;5114398;28;20491;-80
2022/04/14 06:42:07;;;;;;;65.25;36.85;;;9.90;99.90;;;;;;5114865;28;20529;-81
2022/04/14 06:44:33;;;;;;;48.88;34.40;;;10.00;99.90;;;;;;5098584;28;20050;-81
2022/04/14 06:46:59;;;;;;;56.47;33.90;;;10.10;99.90;;;;;;5114319;28;20039;-81
2022/04/14 06:49:25;;;;;;;47.22;32.70;;;10.20;99.90;;;;;;5116416;28;20559;-80
2022/04/14 06:51:50;;;;;;;48.50;31.00;;;10.30;99.90;;;;;;5114821;28;20118;-81
2022/04/14 06:54:17;;;;;;;50.75;32.13;;;10.40;99.90;;;;;;5113837;28;20040;-81
2022/04/14 06:56:43;;;;;;;52.28;31.95;;;10.50;99.90;;;;;;5116301;28;20073;-81
2022/04/14 06:59:08;;;;;;;50.75;31.83;;;10.50;99.90;;;;;;5131599;27;20043;-81
2022/04/14 07:01:34;;;;;;;43.28;28.40;;;10.70;99.90;;;;;;5114223;28;20130;-80
2022/04/14 07:04:00;;;;;;;44.17;30.33;;;10.70;99.90;;;;;;5115713;28;20169;-81
2022/04/14 07:06:26;;;;;;;45.90;28.55;;;10.80;99.90;;;;;;5114844;28;20050;-81
2022/04/14 07:08:51;;;;;;;46.15;29.17;;;10.90;99.90;;;;;;5097180;28;20048;-81
2022/04/14 07:11:17;;;;;;;41.85;28.88;;;10.90;99.90;;;;;;5114478;28;20108;-80
2022/04/14 07:13:43;;;;;;;44.13;28.40;;;11.00;99.90;;;;;;5131966;27;20081;-80
2022/04/14 07:16:09;;;;;;;40.38;27.10;;;11.10;99.90;;;;;;5115199;28;20467;-80
2022/04/14 07:18:35;;;;;;;35.78;24.60;;;11.20;99.90;;;;;;5114834;28;20043;-81
2022/04/14 07:21:01;;;;;;;34.53;24.05;;;11.30;99.90;;;;;;5111752;27;20043;-80
2022/04/14 07:23:27;;;;;;;37.60;25.10;;;11.40;99.90;;;;;;5094850;28;20093;-80
2022/04/14 07:25:53;;;;;;;36.40;24.92;;;11.40;99.90;;;;;;5112556;27;20150;-81
2022/04/14 07:28:19;;;;;;;40.08;24.45;;;11.50;99.90;;;;;;5093675;28;20530;-80
2022/04/14 07:30:45;;;;;;;36.83;24.20;;;11.60;99.90;;;;;;5110809;28;20044;-80
2022/04/14 07:33:11;;;;;;;31.83;23.05;;;11.60;99.90;;;;;;5114212;28;20443;-81
2022/04/14 07:35:37;;;;;;;31.80;22.77;;;11.70;99.90;;;;;;5113562;28;20058;-80
2022/04/14 07:38:03;;;;;;;33.83;22.90;;;11.80;99.90;;;;;;5114412;28;20044;-80
2022/04/14 07:40:29;;;;;;;27.92;21.88;;;11.90;99.90;;;;;;5115296;28;20043;-80
2022/04/14 07:42:56;;;;;;;29.45;22.73;;;11.90;99.90;;;;;;5113486;28;20478;-80
2022/04/14 07:45:22;;;;;;;36.42;22.98;;;12.00;99.90;;;;;;5114192;28;20039;-81
2022/04/14 07:47:48;;;;;;;32.67;22.35;;;12.10;99.90;;;;;;5114020;28;20120;-80
2022/04/14 07:50:16;;;;;;;27.45;22.73;;;12.20;99.90;;;;;;5114080;28;20047;-80
2022/04/14 07:52:47;;;;;;;28.02;22.20;;;12.30;99.90;;;;;;5113959;28;20126;-80
2022/04/14 07:55:20;;;;;;;30.77;21.52;;;12.40;99.90;;;;;;5096125;28;20052;-80
2022/04/14 07:57:47;;;;;;;33.70;22.75;;;12.40;99.90;;;;;;5096372;28;20040;-80
2022/04/14 08:00:13;;;;;;;31.63;23.50;;;12.60;99.90;;;;;;5113880;28;20390;-80
2022/04/14 08:02:47;;;;;;;30.05;21.92;;;12.60;99.90;;;;;;5113719;28;20475;-80
2022/04/14 08:05:13;;;;;;;30.58;21.38;;;12.80;99.90;;;;;;5114030;28;20045;-81
2022/04/14 08:07:38;;;;;;;30.30;22.08;;;12.80;99.90;;;;;;5114166;28;20062;-81
2022/04/14 08:10:04;;;;;;;30.85;21.80;;;12.90;99.90;;;;;;5114592;28;20051;-81
2022/04/14 08:12:30;;;;;;;25.90;21.33;;;13.00;99.90;;;;;;5113608;28;20047;-81
2022/04/14 08:14:56;;;;;;;24.50;17.77;;;13.10;99.90;;;;;;5113284;28;20032;-80
2022/04/14 08:17:22;;;;;;;23.80;18.88;;;13.20;99.90;;;;;;5113365;28;20035;-80
2022/04/14 08:19:47;;;;;;;29.33;20.00;;;13.20;99.90;;;;;;5112641;28;20050;-80
2022/04/14 08:22:13;;;;;;;23.83;17.33;;;13.30;99.90;;;;;;5113008;28;20124;-80
2022/04/14 08:24:39;;;;;;;22.45;17.63;;;13.40;99.90;;;;;;5112523;28;20047;-80
2022/04/14 08:27:05;;;;;;;21.75;16.38;;;13.50;99.90;;;;;;5114348;28;20096;-80
2022/04/14 08:29:31;;;;;;;19.65;15.40;;;13.60;99.90;;;;;;5114531;28;20036;-80
2022/04/14 08:31:57;;;;;;;20.52;16.08;;;13.70;99.90;;;;;;5112203;28;20055;-80
2022/04/14 08:34:23;;;;;;;21.08;15.93;;;13.80;99.90;;;;;;5114026;28;20092;-79
2022/04/14 08:36:52;;;;;;;19.17;15.25;;;13.80;99.90;;;;;;5113159;28;20043;-79
2022/04/14 08:39:18;;;;;;;19.17;14.80;;;13.90;99.90;;;;;;5112210;28;20047;-80
2022/04/14 08:41:49;;;;;;;19.42;15.40;;;14.00;99.90;;;;;;5112795;28;20043;-80
2022/04/14 08:44:21;;;;;;;18.30;14.63;;;14.20;99.90;;;;;;5112648;28;20040;-80
2022/04/14 08:46:48;;;;;;;20.27;13.98;;;14.20;99.90;;;;;;5113663;28;20079;-80
2022/04/14 08:49:16;;;;;;;18.58;14.70;;;14.30;99.90;;;;;;5112436;28;20142;-79
2022/04/14 08:51:42;;;;;;;16.48;14.00;;;14.40;99.90;;;;;;5114257;28;20083;-80
2022/04/14 08:54:09;;;;;;;17.83;13.75;;;14.50;99.90;;;;;;5113085;28;20499;-80
2022/04/14 08:56:36;;;;;;;15.75;12.90;;;14.60;99.90;;;;;;5112734;28;20055;-80
2022/04/14 08:59:02;;;;;;;13.10;11.52;;;14.70;99.90;;;;;;5113983;28;20043;-80
2022/04/14 09:01:28;;;;;;;15.75;10.80;;;14.80;99.90;;;;;;5112073;28;20139;-80
2022/04/14 09:03:57;;;;;;;15.77;11.57;;;14.90;99.90;;;;;;5112801;28;20126;-80
2022/04/14 09:06:27;;;;;;;15.48;12.07;;;14.90;99.90;;;;;;5112122;28;20044;-80
2022/04/14 09:08:56;;;;;;;15.60;11.52;;;14.90;99.90;;;;;;5095091;28;20554;-80
2022/04/14 09:11:22;;;;;;;23.75;12.38;;;15.00;99.90;;;;;;5114039;28;20039;-80
2022/04/14 09:13:56;;;;;;;16.58;9.18;;;15.10;99.90;;;;;;5110871;28;20052;-79
2022/04/14 09:16:22;;;;;;;16.20;9.60;;;15.10;99.90;;;;;;5084570;28;20058;-79
2022/04/14 09:18:49;;;;;;;13.77;11.05;;;15.20;99.90;;;;;;5112852;28;20043;-80
2022/04/14 09:21:15;;;;;;;14.98;10.88;;;15.20;99.90;;;;;;5112732;28;20047;-79
2022/04/14 09:23:50;;;;;;;24.25;12.05;;;15.30;99.90;;;;;;5112483;28;20105;-79
2022/04/14 09:26:22;;;;;;;13.88;10.32;;;15.40;99.90;;;;;;5113526;28;20039;-79
2022/04/14 09:29:01;;;;;;;12.52;10.30;;;15.30;99.90;;;;;;5113010;28;20395;-80
2022/04/14 09:31:28;;;;;;;14.32;10.63;;;15.30;99.90;;;;;;5111989;28;20044;-79
2022/04/14 09:33:55;;;;;;;14.50;9.95;;;15.50;99.90;;;;;;5112477;28;20052;-79
2022/04/14 09:36:23;;;;;;;12.70;8.40;;;15.50;99.90;;;;;;5118688;27;20483;-78
2022/04/14 09:38:58;;;;;;;12.55;7.53;;;15.60;99.90;;;;;;5109235;28;20139;-79
2022/04/14 09:41:37;;;;;;;10.68;7.53;;;15.70;99.90;;;;;;5112141;28;20109;-79
2022/04/14 09:44:04;;;;;;;10.00;7.05;;;15.80;99.90;;;;;;5111586;28;20116;-77
2022/04/14 09:46:30;;;;;;;14.13;7.80;;;15.60;99.90;;;;;;5113281;28;20326;-78
2022/04/14 09:49:07;;;;;;;12.65;7.63;;;15.40;99.90;;;;;;5111803;28;20051;-78
2022/04/14 09:51:38;;;;;;;8.63;6.43;;;15.30;99.90;;;;;;5112787;28;20060;-78
2022/04/14 09:54:11;;;;;;;10.32;6.70;;;15.30;99.90;;;;;;5111494;28;20530;-78
2022/04/14 09:56:45;;;;;;;11.38;7.07;;;15.30;99.90;;;;;;5094059;28;20040;-78
2022/04/14 09:59:13;;;;;;;10.18;6.72;;;15.30;99.90;;;;;;5105442;28;20043;-79
2022/04/14 10:01:39;;;;;;;9.18;6.85;;;15.30;99.90;;;;;;5111296;28;20100;-80
2022/04/14 10:04:06;;;;;;;10.32;7.18;;;15.50;99.90;;;;;;5111703;28;20043;-79
2022/04/14 10:06:32;;;;;;;10.50;5.75;;;15.60;99.90;;;;;;5112290;28;20043;-79
2022/04/14 10:08:58;;;;;;;12.23;5.88;;;15.80;99.90;;;;;;5113251;28;20039;-79
2022/04/14 10:11:25;;;;;;;9.85;5.47;;;15.90;99.90;;;;;;5092164;28;20050;-79
2022/04/14 10:13:51;;;;;;;12.80;6.40;;;16.20;99.90;;;;;;5093110;28;20045;-79
2022/04/14 10:16:20;;;;;;;8.93;5.47;;;16.30;99.90;;;;;;5111246;28;20050;-78
2022/04/14 10:18:47;;;;;;;8.27;4.60;;;16.40;99.90;;;;;;5115310;28;20463;-78
2022/04/14 10:21:14;;;;;;;8.27;4.70;;;16.40;99.90;;;;;;5117272;28;20040;-79
2022/04/14 10:23:41;;;;;;;10.00;5.72;;;16.30;99.90;;;;;;5116962;28;20047;-79
2022/04/14 10:26:09;;;;;;;9.88;4.65;;;16.30;99.90;;;;;;5116285;28;20045;-79
2022/04/14 10:28:36;;;;;;;7.50;4.78;;;16.40;99.90;;;;;;5115777;28;20491;-78
2022/04/14 10:31:02;;;;;;;10.07;4.85;;;16.40;99.90;;;;;;5116849;28;20042;-78
2022/04/14 10:33:31;;;;;;;9.43;5.97;;;16.60;99.90;;;;;;5097522;28;20051;-78
2022/04/14 10:35:57;;;;;;;8.30;4.85;;;16.80;99.90;;;;;;5115522;28;20130;-79
2022/04/14 10:38:26;;;;;;;10.38;3.85;;;16.80;99.90;;;;;;5115467;28;20035;-81
2022/04/14 10:41:14;;;;;;;7.35;3.97;;;17.00;99.90;;;;;;5115145;28;20118;-80
2022/04/14 10:43:45;;;;;;;5.18;2.90;;;17.20;99.90;;;;;;5095800;28;20090;-79
2022/04/14 10:46:17;;;;;;;8.05;3.15;;;17.30;99.90;;;;;;5106773;28;20035;-79
2022/04/14 10:48:44;;;;;;;8.25;3.45;;;17.40;99.90;;;;;;5114822;28;20051;-79
2022/04/14 10:51:27;;;;;;;8.95;3.35;;;17.50;99.90;;;;;;5116413;28;20134;-78
2022/04/14 10:54:11;;;;;;;6.05;2.63;;;17.60;99.90;;;;;;5113830;28;20082;-79
2022/04/14 10:56:36;;;;;;;5.13;2.65;;;17.80;99.90;;;;;;5114930;28;20090;-78
2022/04/14 10:59:12;;;;;;;6.70;2.30;;;17.80;99.90;;;;;;5115261;28;20070;-78
2022/04/14 11:01:47;;;;;;;4.22;1.80;;;17.90;99.90;;;;;;5115640;28;20040;-78
2022/04/14 11:04:33;;;;;;;5.95;2.42;;;17.90;99.90;;;;;;5115897;28;20039;-78
2022/04/14 11:07:07;;;;;;;5.45;2.53;;;18.10;99.90;;;;;;5096934;28;20051;-78
2022/04/14 11:09:39;;;;;;;7.47;2.70;;;18.00;99.90;;;;;;5116149;28;20035;-78
2022/04/14 11:12:07;;;;;;;4.68;2.42;;;17.80;99.90;;;;;;5114877;28;20301;-78
2022/04/14 11:14:37;;;;;;;3.42;2.13;;;17.80;99.90;;;;;;5096689;28;20040;-77
2022/04/14 11:17:03;;;;;;;5.05;3.40;;;17.60;99.90;;;;;;5113972;28;20040;-78
2022/04/14 11:19:30;;;;;;;4.97;2.53;;;17.40;99.90;;;;;;5095433;28;20040;-79
2022/04/14 11:22:02;;;;;;;5.10;2.30;;;17.50;99.90;;;;;;5087951;28;20048;-79
2022/04/14 11:24:37;;;;;;;4.10;2.38;;;17.50;99.90;;;;;;5114379;28;20052;-78
2022/04/14 11:27:11;;;;;;;4.85;2.88;;;17.60;99.90;;;;;;5115262;28;20043;-77
2022/04/14 11:29:39;;;;;;;6.43;2.50;;;17.50;99.90;;;;;;5112959;28;20079;-77
2022/04/14 11:32:06;;;;;;;7.38;2.60;;;17.40;99.90;;;;;;5115537;28;20040;-77
2022/04/14 11:34:34;;;;;;;3.83;1.90;;;17.50;99.90;;;;;;5114869;28;20086;-78
2022/04/14 11:37:01;;;;;;;4.32;2.60;;;17.70;99.90;;;;;;5114827;28;20050;-77
2022/04/14 11:39:28;;;;;;;5.57;2.90;;;17.60;99.90;;;;;;5114538;28;20042;-78
2022/04/14 11:41:55;;;;;;;4.82;2.40;;;17.50;99.90;;;;;;5113323;28;20047;-77
2022/04/14 11:44:26;;;;;;;6.75;2.75;;;17.50;99.90;;;;;;5114309;28;20040;-77
2022/04/14 11:46:55;;;;;;;4.95;1.98;;;17.50;99.90;;;;;;5113783;28;20047;-77
2022/04/14 11:49:23;;;;;;;4.65;2.33;;;17.70;99.90;;;;;;5114352;28;20583;-77
2022/04/14 11:51:53;;;;;;;4.10;1.65;;;17.70;99.90;;;;;;5114862;28;20051;-77
2022/04/14 11:54:21;;;;;;;6.32;2.13;;;17.70;99.90;;;;;;5114933;28;20039;-77
2022/04/14 11:56:52;;;;;;;6.57;1.90;;;17.70;99.90;;;;;;5112809;28;20502;-79
2022/04/14 11:59:32;;;;;;;3.88;1.70;;;17.60;99.90;;;;;;5113971;28;20044;-77
2022/04/14 12:02:03;;;;;;;3.55;1.55;;;17.50;99.90;;;;;;5114470;28;20039;-78
2022/04/14 12:04:36;;;;;;;3.72;1.58;;;17.40;99.90;;;;;;5112718;28;20040;-77
2022/04/14 12:07:02;;;;;;;5.40;1.77;;;17.30;99.90;;;;;;5103528;28;20494;-78
2022/04/14 12:09:28;;;;;;;5.55;2.15;;;17.30;99.90;;;;;;5096323;28;20475;-78
2022/04/14 12:11:54;;;;;;;3.63;2.10;;;17.40;99.90;;;;;;5095596;28;20051;-79
2022/04/14 12:14:21;;;;;;;7.57;1.80;;;17.50;99.90;;;;;;5113088;28;20042;-78
2022/04/14 12:16:56;;;;;;;7.10;2.47;;;17.50;99.90;;;;;;5113523;28;20054;-78
2022/04/14 12:19:22;;;;;;;5.43;2.70;;;17.70;99.90;;;;;;5113772;28;20114;-77
2022/04/14 12:22:02;;;;;;;5.03;2.42;;;17.70;99.90;;;;;;5114313;28;20048;-77
2022/04/14 12:24:29;;;;;;;5.57;2.40;;;17.80;99.90;;;;;;5112894;28;20051;-77
2022/04/14 12:26:56;;;;;;;4.88;2.03;;;17.80;99.90;;;;;;5096163;28;20558;-78
2022/04/14 12:29:23;;;;;;;5.82;2.53;;;17.70;99.90;;;;;;5113607;28;20064;-78
2022/04/14 12:31:54;;;;;;;6.97;2.88;;;17.50;99.90;;;;;;5112120;28;20486;-78
2022/04/14 12:34:20;;;;;;;4.95;2.20;;;17.60;99.90;;;;;;5096565;28;20395;-78
2022/04/14 12:36:45;;;;;;;2.78;1.58;;;17.70;99.90;;;;;;5113181;28;20036;-77